Weather at Winters Aire Park Airport

Public forecast

Using degrees Celsius for public forecast. Weather courtesy of forecast.io.

Closest aviation weather report (METAR) to Winters Aire Park Airport

Closest report is Calgary International Airport, 15.1 nm (28.0 km) NW. Retrieved 2022/01/28 09:00 UTC (2 hours ago):

CYYC 280900Z 17005KT 15SM FEW250 M01/M15 A3012 RMK CI1 SLP243

Closest aviation forecast (TAF) to Winters Aire Park Airport

Closest forecast is Calgary International Airport, 15.1 nm (28.0 km) NW. Retrieved 2022/01/28 09:42 UTC (1 hour ago):

TAF CYYC 280840Z 2809/2906 VRB03KT P6SM FEW240 BECMG 2815/2817 27012KT FM282000 27015G25KT P6SM BKN240 FM290200 27010KT P6SM BKN260 RMK NXT FCST BY 281200Z